Time;durP1;ratioP1;P1;durP2;ratioP2;P2;SDS_P1;SDS_P2;PMS_P1;PMS_P2;Temp;Humidity;BMP_temperature;BMP_pressure;BME280_temperature;BME280_humidity;BME280_pressure;Samples;Min_cycle;Max_cycle;Signal;HPM_P1;HPM_P2
2021/03/14 00:00:12;;;;;;;11.53;9.75;;;;;;;1.06;91.39;98922.57;1751860;81;21059;-61
2021/03/14 00:02:39;;;;;;;12.50;9.95;;;;;;;1.05;91.37;98917.88;1751847;82;21368;-61
2021/03/14 00:05:09;;;;;;;12.58;9.88;;;;;;;1.01;91.55;98908.10;1751802;82;21107;-61
2021/03/14 00:07:36;;;;;;;12.45;9.60;;;;;;;1.01;91.69;98911.09;1751933;82;21139;-61
2021/03/14 00:10:06;;;;;;;13.15;10.35;;;;;;;1.00;91.83;98906.84;1700505;82;21131;-61
2021/03/14 00:12:33;;;;;;;10.60;9.30;;;;;;;0.99;92.00;98909.02;1751819;82;21166;-61
2021/03/14 00:15:01;;;;;;;12.68;10.28;;;;;;;0.99;92.06;98909.02;1751800;82;21350;-61
2021/03/14 00:17:28;;;;;;;12.13;10.65;;;;;;;0.96;92.16;98907.77;1751845;82;21995;-61
2021/03/14 00:19:56;;;;;;;11.63;10.43;;;;;;;0.96;92.44;98907.77;1751883;82;21539;-61
2021/03/14 00:22:24;;;;;;;13.48;11.12;;;;;;;0.95;92.59;98909.48;1751821;82;21163;-60
2021/03/14 00:24:51;;;;;;;13.88;11.30;;;;;;;0.96;92.63;98907.33;1751866;81;21044;-61
2021/03/14 00:27:19;;;;;;;11.88;10.00;;;;;;;0.96;92.59;98911.17;1751830;82;21274;-61
2021/03/14 00:29:48;;;;;;;14.28;11.53;;;;;;;0.96;92.79;98907.77;1751780;81;21079;-61
2021/03/14 00:32:15;;;;;;;15.48;12.25;;;;;;;0.95;92.85;98900.95;1751829;82;21123;-60
2021/03/14 00:34:43;;;;;;;14.05;12.55;;;;;;;0.94;92.94;98895.41;1751862;82;21579;-61
2021/03/14 00:37:12;;;;;;;13.48;11.50;;;;;;;0.96;93.11;98886.00;1751858;82;21075;-61
2021/03/14 00:39:39;;;;;;;15.03;13.15;;;;;;;0.99;93.33;98882.98;1751849;82;21374;-60
2021/03/14 00:42:07;;;;;;;15.10;12.98;;;;;;;1.03;93.57;98880.77;1751748;81;21182;-61
2021/03/14 00:44:34;;;;;;;19.90;15.30;;;;;;;1.07;93.83;98877.73;1751778;81;21063;-61
2021/03/14 00:47:02;;;;;;;18.75;13.35;;;;;;;1.12;94.04;98875.97;1762007;81;21091;-61
2021/03/14 00:49:31;;;;;;;18.12;14.15;;;;;;;1.19;94.19;98876.31;1762603;81;21515;-60
2021/03/14 00:51:58;;;;;;;18.32;14.23;;;;;;;1.24;94.15;98868.11;1762579;81;21487;-61
2021/03/14 00:54:26;;;;;;;17.85;13.90;;;;;;;1.30;94.16;98872.31;1762703;81;21155;-61
2021/03/14 00:56:54;;;;;;;19.10;14.50;;;;;;;1.33;94.25;98874.84;1762711;81;21547;-61
2021/03/14 00:59:22;;;;;;;19.70;14.95;;;;;;;1.37;94.26;98884.18;1762742;81;21059;-61
2021/03/14 01:01:51;;;;;;;18.45;14.80;;;;;;;1.43;94.22;98882.79;1762743;81;21063;-61
2021/03/14 01:04:19;;;;;;;19.42;15.13;;;;;;;1.46;94.08;98872.94;1762715;81;21399;-60
2021/03/14 01:06:48;;;;;;;24.27;16.90;;;;;;;1.47;94.12;98874.20;1762645;81;21074;-60
2021/03/14 01:09:16;;;;;;;24.80;17.60;;;;;;;1.53;94.27;98877.11;1762680;81;21142;-61
2021/03/14 01:11:43;;;;;;;23.70;16.48;;;;;;;1.58;94.29;98881.31;1762702;81;21158;-60
2021/03/14 01:14:14;;;;;;;22.07;16.15;;;;;;;1.64;94.18;98879.91;1761029;81;21158;-61
2021/03/14 01:16:53;;;;;;;25.08;16.82;;;;;;;1.70;94.08;98881.55;1760688;81;21439;-61
2021/03/14 01:19:21;;;;;;;26.15;16.70;;;;;;;1.76;93.94;98881.47;1762649;81;21099;-61
2021/03/14 01:21:49;;;;;;;27.60;18.85;;;;;;;1.78;93.75;98877.59;1762705;81;21570;-61
2021/03/14 01:24:16;;;;;;;23.45;17.82;;;;;;;1.79;93.71;98876.30;1762698;81;21111;-61
2021/03/14 01:26:44;;;;;;;23.57;17.55;;;;;;;1.84;93.68;98866.79;1762700;81;21122;-61
2021/03/14 01:29:12;;;;;;;25.30;15.40;;;;;;;1.89;93.51;98862.88;1762709;81;22160;-61
2021/03/14 01:31:39;;;;;;;25.40;16.27;;;;;;;1.89;93.16;98860.31;1762758;81;21518;-61
2021/03/14 01:34:07;;;;;;;24.40;17.75;;;;;;;1.85;92.95;98860.79;1762642;81;21134;-61
2021/03/14 01:36:35;;;;;;;25.23;17.45;;;;;;;1.83;93.10;98858.68;1762683;81;21059;-61
2021/03/14 01:39:03;;;;;;;20.68;14.65;;;;;;;1.84;92.93;98856.97;1762718;81;21075;-61
2021/03/14 01:41:31;;;;;;;20.82;15.78;;;;;;;1.81;92.76;98862.14;1762700;81;21129;-61
2021/03/14 01:43:59;;;;;;;25.65;18.50;;;;;;;1.78;92.73;98864.78;1762635;81;21071;-61
2021/03/14 01:46:27;;;;;;;24.60;17.67;;;;;;;1.76;92.96;98873.77;1756310;81;21111;-59
2021/03/14 01:48:56;;;;;;;24.47;16.25;;;;;;;1.80;93.13;98867.70;1746932;81;21139;-61
2021/03/14 01:51:23;;;;;;;23.60;16.40;;;;;;;1.81;92.91;98871.11;1751961;82;21625;-61
2021/03/14 01:53:51;;;;;;;23.95;16.82;;;;;;;1.80;92.78;98880.52;1751892;82;21356;-61
2021/03/14 01:56:19;;;;;;;21.42;15.88;;;;;;;1.82;92.95;98878.78;1751884;81;21500;-61
2021/03/14 01:58:48;;;;;;;23.45;16.37;;;;;;;1.86;93.09;98880.87;1728853;82;21587;-61
2021/03/14 02:01:16;;;;;;;21.07;15.75;;;;;;;1.89;92.96;98869.28;1751888;82;21139;-61
2021/03/14 02:03:43;;;;;;;17.98;13.98;;;;;;;1.90;92.77;98873.11;1751906;82;21539;-61
2021/03/14 02:06:11;;;;;;;19.73;14.73;;;;;;;1.93;92.66;98883.76;1751921;82;21495;-61
2021/03/14 02:08:40;;;;;;;20.95;14.90;;;;;;;1.93;92.52;98882.04;1751874;82;21075;-61
2021/03/14 02:11:08;;;;;;;24.25;17.37;;;;;;;1.91;92.26;98878.65;1751914;82;21092;-61
2021/03/14 02:13:40;;;;;;;22.98;16.15;;;;;;;1.87;92.29;98887.69;1751856;82;21159;-62
2021/03/14 02:16:15;;;;;;;21.35;15.95;;;;;;;1.84;92.30;98880.89;1752114;82;21071;-60
2021/03/14 02:18:47;;;;;;;22.15;16.62;;;;;;;1.87;92.43;98878.72;1751949;82;21356;-60
2021/03/14 02:21:15;;;;;;;22.82;17.05;;;;;;;1.88;92.30;98879.13;1751836;82;21110;-60
2021/03/14 02:24:12;;;;;;;25.90;16.87;;;;;;;1.86;92.09;98888.13;1751930;82;21210;-61
2021/03/14 02:27:05;;;;;;;27.50;18.37;;;;;;;1.83;92.08;98887.32;1751895;82;21983;-61
2021/03/14 02:29:35;;;;;;;25.52;17.12;;;;;;;1.79;91.98;98891.67;1752102;82;21084;-61
2021/03/14 02:32:05;;;;;;;29.75;19.35;;;;;;;1.79;92.02;98899.37;1752009;81;22248;-60
2021/03/14 02:34:36;;;;;;;31.25;18.98;;;;;;;1.78;92.14;98893.83;1751822;82;21171;-60
2021/03/14 02:37:05;;;;;;;22.87;16.60;;;;;;;1.80;92.13;98886.93;1751931;82;21087;-61
2021/03/14 02:39:33;;;;;;;23.70;16.23;;;;;;;1.82;92.09;98880.50;1751904;82;21170;-61
2021/03/14 02:42:02;;;;;;;27.30;17.52;;;;;;;1.83;91.85;98881.76;1751935;82;21060;-61
2021/03/14 02:44:34;;;;;;;28.52;17.75;;;;;;;1.84;91.83;98869.78;1751951;82;21342;-61
2021/03/14 02:47:02;;;;;;;23.65;16.07;;;;;;;1.84;91.82;98872.34;1759009;81;21535;-61
2021/03/14 02:49:30;;;;;;;21.12;14.33;;;;;;;1.83;91.64;98875.34;1762715;81;21512;-61
2021/03/14 02:51:57;;;;;;;14.13;12.03;;;;;;;1.82;91.51;98877.94;1762637;81;21594;-61
2021/03/14 02:54:25;;;;;;;14.68;12.20;;;;;;;1.77;91.38;98880.59;1762612;81;21586;-62
2021/03/14 02:56:52;;;;;;;12.95;10.98;;;;;;;1.73;91.32;98870.81;1762643;81;21311;-61
2021/03/14 02:59:21;;;;;;;13.20;11.83;;;;;;;1.72;91.55;98869.12;1762581;81;21515;-61
2021/03/14 03:01:50;;;;;;;16.77;11.50;;;;;;;1.76;91.72;98866.52;1762641;81;21131;-62
2021/03/14 03:04:25;;;;;;;15.25;11.45;;;;;;;1.79;91.47;98866.47;1762637;81;21079;-61
2021/03/14 03:06:56;;;;;;;12.82;11.48;;;;;;;1.78;91.37;98869.47;1762685;81;21051;-61
2021/03/14 03:09:24;;;;;;;12.30;10.33;;;;;;;1.77;91.11;98881.03;1762893;81;21461;-62
2021/03/14 03:11:53;;;;;;;11.75;10.18;;;;;;;1.76;91.15;98880.19;1762559;81;21059;-61
2021/03/14 03:14:24;;;;;;;14.30;11.50;;;;;;;1.77;91.15;98878.03;1762554;81;21539;-60
2021/03/14 03:16:52;;;;;;;11.93;9.83;;;;;;;1.75;91.00;98875.08;1762800;81;21474;-60
2021/03/14 03:19:20;;;;;;;11.05;9.60;;;;;;;1.73;91.03;98882.79;1762639;81;21086;-60
2021/03/14 03:21:49;;;;;;;10.38;9.18;;;;;;;1.71;90.91;98876.40;1762699;81;22262;-61
2021/03/14 03:24:16;;;;;;;12.23;9.78;;;;;;;1.71;90.89;98867.86;1762668;81;21574;-61
2021/03/14 03:26:46;;;;;;;12.50;10.82;;;;;;;1.69;90.90;98867.03;1762578;81;21159;-61
2021/03/14 03:29:15;;;;;;;11.18;10.08;;;;;;;1.67;90.96;98861.09;1762608;81;21198;-62
2021/03/14 03:31:43;;;;;;;12.15;10.85;;;;;;;1.63;90.96;98862.00;1762734;81;21486;-61
2021/03/14 03:34:11;;;;;;;10.90;9.80;;;;;;;1.64;90.97;98863.69;1762674;81;22357;-61
2021/03/14 03:36:39;;;;;;;12.15;10.82;;;;;;;1.63;91.02;98862.84;1762567;81;21079;-61
2021/03/14 03:39:09;;;;;;;11.45;10.08;;;;;;;1.64;91.01;98861.12;1762634;81;21122;-62
2021/03/14 03:41:52;;;;;;;12.68;10.40;;;;;;;1.66;91.04;98866.64;1762613;81;21075;-61
2021/03/14 03:44:21;;;;;;;11.20;9.53;;;;;;;1.65;90.84;98855.13;1762731;81;21079;-61
2021/03/14 03:46:51;;;;;;;11.25;9.55;;;;;;;1.63;90.77;98857.72;1757353;81;21364;-61
2021/03/14 03:49:22;;;;;;;12.82;11.05;;;;;;;1.63;90.74;98856.87;1751903;82;21091;-61
2021/03/14 03:51:49;;;;;;;12.13;10.23;;;;;;;1.62;90.64;98854.73;1751966;81;21635;-61
2021/03/14 03:54:17;;;;;;;11.83;10.15;;;;;;;1.58;90.60;98853.55;1751903;82;21574;-61
2021/03/14 03:56:45;;;;;;;13.43;10.93;;;;;;;1.57;90.89;98859.55;1751866;81;21531;-60
2021/03/14 03:59:13;;;;;;;12.53;10.88;;;;;;;1.59;90.90;98858.66;1751797;82;21357;-61
2021/03/14 04:01:41;;;;;;;10.75;9.53;;;;;;;1.62;90.76;98855.17;1751819;82;21095;-60
2021/03/14 04:04:09;;;;;;;11.55;10.32;;;;;;;1.64;90.72;98859.84;1751792;81;21068;-61
2021/03/14 04:06:37;;;;;;;13.15;10.93;;;;;;;1.68;90.85;98862.34;1751850;82;21099;-61
2021/03/14 04:09:06;;;;;;;12.85;11.08;;;;;;;1.74;90.78;98860.13;1751852;82;21555;-61
2021/03/14 04:11:34;;;;;;;13.85;11.38;;;;;;;1.79;90.70;98857.50;1751847;82;21366;-61
2021/03/14 04:14:02;;;;;;;11.40;10.20;;;;;;;1.82;90.48;98850.58;1751751;82;21099;-61
2021/03/14 04:16:29;;;;;;;12.30;11.00;;;;;;;1.79;90.14;98854.50;1727378;82;21492;-62
2021/03/14 04:18:57;;;;;;;12.70;10.13;;;;;;;1.76;90.17;98851.13;1751825;81;21171;-61
2021/03/14 04:21:25;;;;;;;13.28;10.53;;;;;;;1.76;90.41;98857.11;1751791;82;21704;-61
2021/03/14 04:23:53;;;;;;;12.05;10.75;;;;;;;1.78;90.31;98854.52;1751844;81;21394;-61
2021/03/14 04:26:22;;;;;;;14.23;11.55;;;;;;;1.77;90.21;98854.11;1728642;82;21087;-61
2021/03/14 04:28:52;;;;;;;10.98;9.65;;;;;;;1.74;90.07;98849.87;1752013;82;21063;-60
2021/03/14 04:31:20;;;;;;;13.35;10.75;;;;;;;1.73;90.11;98850.31;1751995;82;21056;-60
2021/03/14 04:33:50;;;;;;;13.10;11.05;;;;;;;1.75;90.23;98843.88;1751990;82;21476;-61
2021/03/14 04:36:17;;;;;;;13.08;10.80;;;;;;;1.75;90.20;98843.88;1751977;82;23580;-61
2021/03/14 04:38:44;;;;;;;12.98;10.18;;;;;;;1.77;90.15;98841.30;1751932;82;21155;-61
2021/03/14 04:41:12;;;;;;;12.35;10.32;;;;;;;1.73;90.05;98828.52;1728885;82;21492;-61
2021/03/14 04:43:41;;;;;;;11.95;10.38;;;;;;;1.73;90.05;98831.08;1751924;81;21077;-61
2021/03/14 04:46:14;;;;;;;11.20;10.00;;;;;;;1.73;90.06;98828.95;1751856;81;21082;-61
2021/03/14 04:48:42;;;;;;;12.35;11.08;;;;;;;1.73;90.17;98828.95;1752028;82;21321;-61
2021/03/14 04:51:11;;;;;;;11.55;10.00;;;;;;;1.72;90.01;98822.13;1749022;81;21107;-61
2021/03/14 04:53:39;;;;;;;11.90;10.68;;;;;;;1.70;89.87;98820.03;1751945;82;21092;-61
2021/03/14 04:56:06;;;;;;;9.33;8.23;;;;;;;1.71;89.95;98819.16;1751918;82;22013;-61
2021/03/14 04:58:36;;;;;;;9.88;8.85;;;;;;;1.72;89.92;98814.01;1752004;82;21615;-60
2021/03/14 05:01:03;;;;;;;11.50;10.30;;;;;;;1.73;89.88;98814.42;1752055;82;23575;-60
2021/03/14 05:03:32;;;;;;;11.15;9.53;;;;;;;1.72;89.85;98810.59;1751916;82;21087;-60
2021/03/14 05:06:00;;;;;;;10.60;9.48;;;;;;;1.72;89.93;98814.44;1752024;82;21484;-60
2021/03/14 05:08:27;;;;;;;13.10;9.95;;;;;;;1.77;89.91;98815.66;1751962;82;21127;-61
2021/03/14 05:10:55;;;;;;;11.78;9.83;;;;;;;1.81;89.86;98812.14;1751946;81;21126;-61
2021/03/14 05:13:23;;;;;;;10.95;9.78;;;;;;;1.83;89.94;98806.13;1751982;82;21261;-61
2021/03/14 05:15:52;;;;;;;11.60;9.35;;;;;;;1.87;89.90;98793.66;1751908;82;21071;-61
2021/03/14 05:18:20;;;;;;;12.43;10.23;;;;;;;1.87;89.63;98797.95;1751973;82;21051;-61
2021/03/14 05:20:50;;;;;;;10.90;9.78;;;;;;;1.82;89.39;98798.02;1751945;81;21074;-61
2021/03/14 05:23:17;;;;;;;12.82;10.00;;;;;;;1.80;89.59;98798.94;1700295;82;21550;-61
2021/03/14 05:25:45;;;;;;;12.03;10.48;;;;;;;1.84;89.75;98801.84;1752053;82;22314;-60
2021/03/14 05:28:13;;;;;;;12.68;10.88;;;;;;;1.87;89.66;98799.23;1751895;82;21579;-60
2021/03/14 05:30:42;;;;;;;15.05;11.90;;;;;;;1.89;89.75;98807.31;1751936;82;21083;-60
2021/03/14 05:33:12;;;;;;;9.28;8.05;;;;;;;1.95;89.74;98808.92;1727735;82;21079;-60
2021/03/14 05:35:40;;;;;;;10.58;9.38;;;;;;;1.98;89.56;98804.59;1752019;82;21060;-61
2021/03/14 05:38:07;;;;;;;9.93;8.80;;;;;;;1.96;89.21;98798.65;1751905;82;21213;-60
2021/03/14 05:40:35;;;;;;;10.85;9.05;;;;;;;1.94;89.16;98790.56;1751876;82;21151;-60
2021/03/14 05:43:03;;;;;;;11.68;9.48;;;;;;;1.92;89.28;98790.59;1751951;82;21503;-61
2021/03/14 05:45:31;;;;;;;9.50;8.50;;;;;;;1.96;89.29;98799.93;1752032;81;21512;-60
2021/03/14 05:47:59;;;;;;;8.03;7.22;;;;;;;2.00;89.10;98794.28;1751834;81;21055;-61
2021/03/14 05:50:28;;;;;;;9.30;7.10;;;;;;;2.01;88.68;98800.67;1751894;82;21134;-61
2021/03/14 05:52:56;;;;;;;11.60;9.40;;;;;;;2.00;88.65;98807.11;1751886;82;21091;-60
2021/03/14 05:55:26;;;;;;;11.22;9.50;;;;;;;2.00;88.82;98809.67;1751894;82;21210;-61
2021/03/14 05:57:55;;;;;;;13.93;11.15;;;;;;;2.07;88.88;98807.41;1752041;81;21595;-60
2021/03/14 06:00:26;;;;;;;13.43;10.58;;;;;;;2.12;88.66;98808.19;1752058;82;21084;-61
2021/03/14 06:02:59;;;;;;;11.53;9.33;;;;;;;2.19;88.63;98805.09;1751918;82;21376;-60
2021/03/14 06:05:29;;;;;;;11.28;9.18;;;;;;;2.24;88.64;98809.23;1752100;81;21083;-61
2021/03/14 06:07:59;;;;;;;11.55;9.90;;;;;;;2.30;88.37;98815.98;1752028;82;21480;-61
2021/03/14 06:10:28;;;;;;;11.08;9.73;;;;;;;2.31;88.28;98818.52;1751880;82;21174;-61
2021/03/14 06:12:55;;;;;;;11.48;9.88;;;;;;;2.37;88.31;98817.56;1751931;82;21111;-61
2021/03/14 06:15:23;;;;;;;10.85;9.20;;;;;;;2.39;87.99;98824.80;1751853;82;21383;-61
2021/03/14 06:17:51;;;;;;;9.10;8.20;;;;;;;2.40;87.86;98816.20;1751868;82;21092;-61
2021/03/14 06:20:37;;;;;;;10.15;9.05;;;;;;;2.39;87.83;98830.78;1751872;82;21492;-61
2021/03/14 06:23:07;;;;;;;9.38;8.43;;;;;;;2.43;87.74;98836.24;1752004;82;21583;-61
2021/03/14 06:25:36;;;;;;;8.58;7.67;;;;;;;2.45;87.48;98833.65;1751956;81;21134;-61
2021/03/14 06:28:04;;;;;;;8.38;7.05;;;;;;;2.49;87.44;98827.59;1751885;82;21440;-62
2021/03/14 06:30:32;;;;;;;9.45;7.95;;;;;;;2.54;87.31;98830.08;1751843;82;21059;-61
2021/03/14 06:33:11;;;;;;;9.23;7.85;;;;;;;2.57;87.13;98819.31;1751870;82;21044;-61
2021/03/14 06:35:44;;;;;;;8.98;7.75;;;;;;;2.61;87.08;98821.36;1751878;82;21067;-61
2021/03/14 06:38:33;;;;;;;11.33;7.47;;;;;;;2.65;86.79;98809.72;1752004;82;21064;-62
2021/03/14 06:41:17;;;;;;;7.53;6.50;;;;;;;2.67;86.68;98807.97;1751986;81;21381;-61
2021/03/14 06:43:48;;;;;;;6.92;6.20;;;;;;;2.73;86.35;98816.00;1751917;81;21563;-61
2021/03/14 06:46:30;;;;;;;8.28;6.97;;;;;;;2.71;86.14;98808.76;1751970;81;21544;-61
2021/03/14 06:49:12;;;;;;;8.53;7.50;;;;;;;2.70;86.11;98807.91;1761614;81;21162;-61
2021/03/14 06:51:48;;;;;;;8.43;7.62;;;;;;;2.77;86.13;98802.22;1762629;81;21063;-62
2021/03/14 06:54:35;;;;;;;8.95;7.42;;;;;;;2.86;85.89;98801.17;1762590;81;21368;-61
2021/03/14 06:57:15;;;;;;;10.23;8.98;;;;;;;2.91;85.67;98805.34;1762566;81;21083;-62
2021/03/14 06:59:48;;;;;;;8.88;7.00;;;;;;;3.01;85.73;98812.39;1762673;81;21562;-61
2021/03/14 07:02:27;;;;;;;8.98;7.53;;;;;;;3.12;85.55;98820.73;1762705;81;21589;-61
2021/03/14 07:05:04;;;;;;;10.20;8.38;;;;;;;3.22;85.04;98827.78;1762638;81;21110;-62
2021/03/14 07:07:41;;;;;;;8.18;7.33;;;;;;;3.27;84.77;98831.10;1762584;81;21375;-61
2021/03/14 07:10:14;;;;;;;7.03;6.33;;;;;;;3.32;84.46;98836.55;1762575;81;21492;-61
2021/03/14 07:12:47;;;;;;;6.25;5.65;;;;;;;3.38;84.14;98837.71;1762842;81;21479;-61
2021/03/14 07:15:17;;;;;;;7.17;6.40;;;;;;;3.43;83.92;98835.86;1762575;81;21134;-61
2021/03/14 07:17:53;;;;;;;9.48;7.62;;;;;;;3.43;83.46;98835.02;1762604;81;21122;-61
2021/03/14 07:20:28;;;;;;;8.95;7.08;;;;;;;3.45;83.44;98839.24;1762670;81;22086;-61
2021/03/14 07:23:03;;;;;;;6.87;6.17;;;;;;;3.48;83.46;98839.62;1762193;81;21174;-62
2021/03/14 07:25:36;;;;;;;8.48;7.17;;;;;;;3.54;83.17;98833.50;1762681;81;21063;-61
2021/03/14 07:28:04;;;;;;;10.58;9.50;;;;;;;3.60;83.08;98835.90;1734789;81;21168;-63
2021/03/14 07:30:32;;;;;;;12.58;10.43;;;;;;;3.66;83.09;98835.77;1762690;81;21507;-61
2021/03/14 07:32:59;;;;;;;9.48;8.45;;;;;;;3.73;82.82;98834.31;1762563;81;21428;-61
2021/03/14 07:35:27;;;;;;;8.58;7.65;;;;;;;3.79;82.38;98827.73;1762459;81;21574;-61
2021/03/14 07:37:56;;;;;;;8.95;7.95;;;;;;;3.79;82.17;98822.59;1762539;81;21130;-61
2021/03/14 07:40:25;;;;;;;7.87;7.08;;;;;;;3.87;82.08;98832.67;1762670;81;21511;-61
2021/03/14 07:43:00;;;;;;;6.95;6.25;;;;;;;3.95;81.78;98823.05;1762679;81;21182;-61
2021/03/14 07:45:30;;;;;;;7.58;6.95;;;;;;;3.97;81.35;98824.30;1762660;81;21180;-61
2021/03/14 07:47:59;;;;;;;8.78;7.20;;;;;;;3.94;81.29;98815.38;1758467;81;21143;-61
2021/03/14 07:50:34;;;;;;;7.00;6.30;;;;;;;3.93;81.34;98822.69;1751864;82;21103;-61
2021/03/14 07:53:07;;;;;;;6.87;6.22;;;;;;;4.01;81.19;98819.02;1751643;82;21515;-62
2021/03/14 07:55:35;;;;;;;6.92;6.25;;;;;;;4.07;80.80;98815.02;1751444;81;21623;-61
2021/03/14 07:58:04;;;;;;;7.00;6.30;;;;;;;4.08;80.38;98813.28;1751827;82;21405;-61
2021/03/14 08:00:34;;;;;;;8.93;7.97;;;;;;;4.08;80.33;98812.84;1751743;81;21504;-62
2021/03/14 08:03:09;;;;;;;9.20;7.87;;;;;;;4.15;80.32;98805.37;1751795;82;21095;-62
2021/03/14 08:05:42;;;;;;;7.75;7.05;;;;;;;4.14;80.12;98811.41;1751813;81;21135;-60
2021/03/14 08:08:26;;;;;;;7.17;6.47;;;;;;;4.16;80.23;98819.09;1751837;82;21118;-61
2021/03/14 08:10:54;;;;;;;6.67;5.80;;;;;;;4.21;80.06;98818.50;1751836;82;21300;-61
2021/03/14 08:13:35;;;;;;;7.83;7.03;;;;;;;4.25;79.93;98817.55;1751466;82;37466;-61
2021/03/14 08:16:08;;;;;;;7.70;6.95;;;;;;;4.27;79.74;98811.08;1751780;82;21075;-61
2021/03/14 08:18:46;;;;;;;8.75;7.95;;;;;;;4.26;79.81;98808.94;1751906;82;21142;-61
2021/03/14 08:21:28;;;;;;;8.35;7.53;;;;;;;4.31;79.57;98801.10;1751811;82;21142;-60
2021/03/14 08:23:59;;;;;;;7.97;7.25;;;;;;;4.35;79.43;98796.28;1749345;82;21211;-61
2021/03/14 08:26:34;;;;;;;7.17;6.47;;;;;;;4.38;79.40;98795.76;1751713;82;21103;-62
2021/03/14 08:29:09;;;;;;;7.50;6.80;;;;;;;4.38;78.99;98789.32;1751914;82;21500;-62
2021/03/14 08:31:49;;;;;;;8.80;7.75;;;;;;;4.42;78.93;98787.48;1751832;82;21075;-61
2021/03/14 08:34:33;;;;;;;11.40;8.35;;;;;;;4.45;78.98;98775.81;1750746;81;21126;-62
2021/03/14 08:37:03;;;;;;;7.90;7.10;;;;;;;4.48;78.93;98777.86;1751800;82;21328;-62
2021/03/14 08:39:38;;;;;;;8.05;6.17;;;;;;;4.54;78.86;98774.73;1751612;82;21257;-63
2021/03/14 08:42:11;;;;;;;7.22;6.47;;;;;;;4.59;78.08;98770.30;1751412;81;21493;-62
2021/03/14 08:44:45;;;;;;;8.85;7.67;;;;;;;4.56;77.94;98772.52;1751408;81;21090;-62
2021/03/14 08:47:23;;;;;;;;;;;;;;;4.58;78.00;98781.05;1753054;81;21482;-61
2021/03/14 08:49:54;;;;;;;8.35;7.55;;;;;;;4.63;78.09;98777.87;1731851;82;21170;-62
2021/03/14 08:52:23;;;;;;;8.88;7.97;;;;;;;4.75;78.00;98767.23;1738220;82;21115;-62
2021/03/14 08:54:56;;;;;;;8.33;7.53;;;;;;;4.83;77.19;98773.42;1734156;82;21170;-61
2021/03/14 08:57:25;;;;;;;9.30;7.58;;;;;;;4.81;76.99;98776.05;1738242;82;21190;-60
2021/03/14 08:59:57;;;;;;;10.08;8.88;;;;;;;4.82;77.03;98774.31;1738231;81;21165;-61
2021/03/14 09:02:30;;;;;;;9.83;8.83;;;;;;;4.82;77.02;98779.02;1713276;82;21363;-62
2021/03/14 09:05:15;;;;;;;10.35;9.35;;;;;;;4.85;76.82;98780.23;1737400;82;21093;-61
2021/03/14 09:08:01;;;;;;;9.83;8.83;;;;;;;4.84;77.07;98776.41;1731089;82;21150;-61
2021/03/14 09:10:38;;;;;;;10.23;9.20;;;;;;;4.85;76.91;98772.94;1738244;82;21596;-62
2021/03/14 09:13:07;;;;;;;10.68;9.60;;;;;;;4.88;76.86;98768.99;1734805;81;21148;-61
2021/03/14 09:15:49;;;;;;;10.88;9.75;;;;;;;4.85;77.01;98776.36;1737777;82;22266;-62
2021/03/14 09:18:29;;;;;;;11.30;10.13;;;;;;;4.88;77.36;98772.02;1737470;81;21114;-61
2021/03/14 09:21:01;;;;;;;11.80;10.50;;;;;;;4.88;76.80;98774.14;1737349;81;21130;-62
2021/03/14 09:23:41;;;;;;;12.63;10.38;;;;;;;4.80;76.91;98767.91;1737558;82;21502;-61
2021/03/14 09:26:11;;;;;;;10.68;9.55;;;;;;;4.80;77.36;98767.07;1738439;82;21471;-62
2021/03/14 09:28:45;;;;;;;15.03;10.45;;;;;;;4.84;77.24;98768.23;1713171;82;21415;-62
2021/03/14 09:31:14;;;;;;;12.23;10.68;;;;;;;4.96;77.59;98774.77;1738323;82;21177;-62
2021/03/14 09:33:44;;;;;;;13.43;11.53;;;;;;;5.07;77.45;98767.55;1737431;81;21089;-62
2021/03/14 09:36:14;;;;;;;12.30;11.00;;;;;;;5.21;77.36;98764.53;1737840;82;21078;-61
2021/03/14 09:38:44;;;;;;;13.03;11.28;;;;;;;5.41;77.09;98771.20;1737359;82;21205;-62
2021/03/14 09:41:13;;;;;;;10.88;9.85;;;;;;;5.67;76.88;98766.95;1737048;82;21209;-61
2021/03/14 09:43:42;;;;;;;12.30;10.40;;;;;;;5.91;75.99;98766.17;1738165;81;21097;-62
2021/03/14 09:46:11;;;;;;;12.75;11.45;;;;;;;6.08;75.31;98758.69;1726163;82;21078;-62
2021/03/14 09:48:41;;;;;;;13.38;11.97;;;;;;;6.19;74.63;98758.33;1744085;80;21058;-61
2021/03/14 09:51:10;;;;;;;14.65;12.07;;;;;;;6.31;73.98;98755.30;1748739;82;21056;-61
2021/03/14 09:53:40;;;;;;;13.18;11.93;;;;;;;6.31;73.51;98760.91;1748820;82;21366;-62
2021/03/14 09:56:14;;;;;;;14.10;12.15;;;;;;;6.27;73.28;98760.63;1747975;82;21103;-62
2021/03/14 09:59:03;;;;;;;13.55;11.60;;;;;;;6.20;72.92;98755.66;1748074;82;21056;-62
2021/03/14 10:01:36;;;;;;;12.28;11.03;;;;;;;6.09;72.91;98741.45;1749609;82;21087;-62
2021/03/14 10:04:04;;;;;;;12.58;11.28;;;;;;;6.01;73.13;98741.71;1727273;82;21146;-62
2021/03/14 10:06:39;;;;;;;12.30;11.00;;;;;;;5.93;73.66;98744.18;1750205;81;22147;-61
2021/03/14 10:09:25;;;;;;;14.15;12.75;;;;;;;5.96;74.02;98728.15;1751886;82;21075;-63
2021/03/14 10:11:55;;;;;;;13.28;11.88;;;;;;;6.00;73.76;98729.70;1749545;81;21142;-61
2021/03/14 10:14:23;;;;;;;13.65;12.25;;;;;;;6.09;73.84;98717.78;1751903;82;21084;-61
2021/03/14 10:16:51;;;;;;;13.28;11.88;;;;;;;6.25;73.49;98714.19;1751929;82;21064;-61
2021/03/14 10:19:21;;;;;;;18.12;12.47;;;;;;;6.31;73.26;98721.73;1729007;82;21214;-61
2021/03/14 10:21:48;;;;;;;13.18;11.25;;;;;;;6.37;73.26;98717.64;1751901;82;21555;-61
2021/03/14 10:24:27;;;;;;;12.68;11.33;;;;;;;6.56;73.06;98711.34;1749909;81;21127;-62
2021/03/14 10:27:07;;;;;;;13.53;11.90;;;;;;;6.76;72.44;98710.15;1751379;81;21163;-61
2021/03/14 10:29:59;;;;;;;13.95;12.07;;;;;;;6.96;72.00;98708.53;1873656;75;22271;-61
2021/03/14 10:32:45;;;;;;;16.07;12.80;;;;;;;7.01;71.41;98699.67;1777797;78;21058;-61
2021/03/14 10:35:15;;;;;;;13.30;11.57;;;;;;;7.06;71.16;98695.63;1840598;77;21131;-62
2021/03/14 10:37:43;;;;;;;14.53;11.90;;;;;;;7.04;71.00;98697.42;1841585;78;21557;-63
2021/03/14 10:40:15;;;;;;;13.95;11.38;;;;;;;6.94;70.69;98693.53;1841003;77;21264;-63
2021/03/14 10:42:50;;;;;;;15.95;12.20;;;;;;;6.82;71.11;98689.66;1785887;78;21081;-61
2021/03/14 10:45:23;;;;;;;13.55;11.78;;;;;;;6.78;71.25;98681.21;1828733;78;21466;-61
2021/03/14 10:48:04;;;;;;;16.12;13.48;;;;;;;6.79;71.50;98674.30;1840844;78;21149;-62
2021/03/14 10:50:35;;;;;;;15.48;12.15;;;;;;;6.86;71.64;98672.69;1840124;78;21050;-61
2021/03/14 10:53:16;;;;;;;17.65;13.32;;;;;;;7.04;71.49;98672.86;1840069;78;21101;-61
2021/03/14 10:55:48;;;;;;;15.13;12.47;;;;;;;7.15;71.05;98662.95;1838315;78;21466;-62
2021/03/14 10:58:19;;;;;;;15.50;12.43;;;;;;;7.24;70.40;98654.80;1841580;78;21041;-61
2021/03/14 11:00:51;;;;;;;14.07;12.55;;;;;;;7.29;70.15;98652.03;1836870;78;21359;-61
2021/03/14 11:03:27;;;;;;;12.45;11.15;;;;;;;7.38;70.39;98657.69;1811504;78;20954;-61
2021/03/14 11:06:26;;;;;;;14.60;12.23;;;;;;;7.60;70.51;98648.54;1841556;78;21129;-61
2021/03/14 11:09:04;;;;;;;15.40;13.25;;;;;;;7.79;69.42;98647.33;1841475;78;21124;-61
2021/03/14 11:11:49;;;;;;;20.52;13.85;;;;;;;7.83;69.55;98641.09;1841571;78;21077;-61
2021/03/14 11:14:44;;;;;;;15.35;13.03;;;;;;;7.91;69.52;98639.02;1811458;78;21360;-61
2021/03/14 11:17:19;;;;;;;12.93;11.57;;;;;;;7.95;68.86;98631.51;1808485;78;21042;-62
2021/03/14 11:19:50;;;;;;;15.63;11.97;;;;;;;7.87;68.24;98634.42;1838694;78;21109;-63
2021/03/14 11:22:19;;;;;;;16.02;13.08;;;;;;;7.82;68.46;98635.52;1808491;78;21053;-62
2021/03/14 11:24:49;;;;;;;13.88;11.90;;;;;;;7.77;68.87;98634.45;1808500;79;21060;-61
2021/03/14 11:27:17;;;;;;;14.93;12.15;;;;;;;7.78;68.63;98639.17;1808477;79;21198;-61
2021/03/14 11:29:45;;;;;;;13.68;12.18;;;;;;;7.74;68.41;98644.09;1808280;79;21137;-62
2021/03/14 11:32:15;;;;;;;14.75;12.80;;;;;;;7.67;69.07;98644.80;1808005;79;21160;-62
2021/03/14 11:34:45;;;;;;;14.65;12.40;;;;;;;7.63;69.08;98638.52;1807402;79;21128;-61
2021/03/14 11:37:27;;;;;;;15.70;13.53;;;;;;;7.64;68.83;98626.80;1724841;79;21529;-61
2021/03/14 11:40:07;;;;;;;15.80;13.38;;;;;;;7.70;69.16;98627.84;1804768;79;21631;-61
2021/03/14 11:42:36;;;;;;;14.40;12.30;;;;;;;7.79;68.96;98624.88;1806718;78;20998;-61
2021/03/14 11:45:08;;;;;;;13.98;12.35;;;;;;;7.88;69.14;98628.79;1805030;79;21125;-62
2021/03/14 11:47:35;;;;;;;16.50;12.45;;;;;;;7.98;69.00;98625.36;1807944;78;21552;-62
2021/03/14 11:50:16;;;;;;;14.87;11.57;;;;;;;8.03;68.55;98621.63;1803653;78;21561;-61